JAL934 RJTT-ROMY
Flight info
| Callsign | JAL934 |
|---|---|
| Flight time | N/A |
| Altitude | 28000 |
| Route | LAXAS Y56 TOHME Y54 KOHWA Y12 AYANO Y128 LAXEL Y52 TONAR Y525 KXC Y62 GANAS Y576 YUTAH |
| Aircraft | MD11/H-SDE1E2E3FGHIJ2J3J4J5M1RWXY/LB1D1 |
Departure
| Time | 2026-02-21 07:29 |
|---|---|
| Airport | Tokyo Haneda International Airport (RJTT) |
Arrival
| Time | N/A |
|---|---|
| Airport | Miyako Airport (ROMY) |
| Time | Latitude | Longitude | Altitude | Speed | Heading |
|---|---|---|---|---|---|
| 2026-02-21 07:11 | 35.54591 | 139.78416 | 21 ft | 2 kts | 90° |
| 2026-02-21 07:12 | 35.54591 | 139.78398 | 20 ft | 2 kts | 90° |
| 2026-02-21 07:12 | 35.54591 | 139.78380 | 18 ft | 2 kts | 90° |
| 2026-02-21 07:12 | 35.54591 | 139.78363 | 17 ft | 2 kts | 90° |
| 2026-02-21 07:12 | 35.54591 | 139.78343 | 16 ft | 2 kts | 96° |
| 2026-02-21 07:13 | 35.54593 | 139.78326 | 15 ft | 2 kts | 104° |
| 2026-02-21 07:13 | 35.54597 | 139.78308 | 14 ft | 2 kts | 111° |
| 2026-02-21 07:13 | 35.54604 | 139.78291 | 13 ft | 2 kts | 118° |
| 2026-02-21 07:13 | 35.54612 | 139.78276 | 12 ft | 2 kts | 133° |
| 2026-02-21 07:14 | 35.54623 | 139.78265 | 12 ft | 2 kts | 146° |
| 2026-02-21 07:14 | 35.54636 | 139.78256 | 12 ft | 2 kts | 152° |
| 2026-02-21 07:14 | 35.54649 | 139.78247 | 12 ft | 2 kts | 150° |
| 2026-02-21 07:14 | 35.54661 | 139.78238 | 12 ft | 2 kts | 150° |
| 2026-02-21 07:15 | 35.54674 | 139.78229 | 12 ft | 2 kts | 150° |
| 2026-02-21 07:15 | 35.54679 | 139.78226 | 12 ft | 0 kts | 150° |
| 2026-02-21 07:17 | 35.54678 | 139.78226 | 12 ft | 0 kts | 150° |
| 2026-02-21 07:18 | 35.54664 | 139.78236 | 12 ft | 4 kts | 150° |
| 2026-02-21 07:18 | 35.54623 | 139.78265 | 12 ft | 9 kts | 150° |
| 2026-02-21 07:18 | 35.54563 | 139.78308 | 14 ft | 10 kts | 150° |
| 2026-02-21 07:18 | 35.54499 | 139.78354 | 17 ft | 10 kts | 150° |
| 2026-02-21 07:19 | 35.54430 | 139.78401 | 20 ft | 11 kts | 150° |
| 2026-02-21 07:19 | 35.54367 | 139.78447 | 26 ft | 9 kts | 150° |
| 2026-02-21 07:19 | 35.54323 | 139.78477 | 30 ft | 5 kts | 150° |
| 2026-02-21 07:19 | 35.54286 | 139.78503 | 32 ft | 6 kts | 150° |
| 2026-02-21 07:20 | 35.54241 | 139.78536 | 36 ft | 8 kts | 150° |
| 2026-02-21 07:20 | 35.54186 | 139.78575 | 38 ft | 10 kts | 150° |
| 2026-02-21 07:20 | 35.54114 | 139.78627 | 38 ft | 14 kts | 150° |
| 2026-02-21 07:20 | 35.54021 | 139.78693 | 34 ft | 20 kts | 150° |
| 2026-02-21 07:21 | 35.53901 | 139.78778 | 32 ft | 18 kts | 150° |
| 2026-02-21 07:21 | 35.53788 | 139.78859 | 32 ft | 20 kts | 150° |
| 2026-02-21 07:21 | 35.53669 | 139.78941 | 34 ft | 17 kts | 150° |
| 2026-02-21 07:21 | 35.53565 | 139.79016 | 35 ft | 19 kts | 150° |
| 2026-02-21 07:22 | 35.53442 | 139.79103 | 32 ft | 16 kts | 150° |
| 2026-02-21 07:22 | 35.53385 | 139.79164 | 28 ft | 12 kts | 112° |
| 2026-02-21 07:22 | 35.53388 | 139.79289 | 24 ft | 18 kts | 62° |
| 2026-02-21 07:22 | 35.53455 | 139.79430 | 20 ft | 23 kts | 60° |
| 2026-02-21 07:23 | 35.53520 | 139.79568 | 18 ft | 16 kts | 59° |
| 2026-02-21 07:23 | 35.53582 | 139.79697 | 19 ft | 19 kts | 60° |
| 2026-02-21 07:23 | 35.53651 | 139.79843 | 18 ft | 15 kts | 59° |
| 2026-02-21 07:23 | 35.53703 | 139.79958 | 15 ft | 13 kts | 70° |
| 2026-02-21 07:24 | 35.53657 | 139.80060 | 14 ft | 17 kts | 149° |
| 2026-02-21 07:24 | 35.53541 | 139.80144 | 13 ft | 21 kts | 150° |
| 2026-02-21 07:24 | 35.53403 | 139.80241 | 13 ft | 24 kts | 150° |
| 2026-02-21 07:24 | 35.53247 | 139.80351 | 13 ft | 21 kts | 150° |
| 2026-02-21 07:25 | 35.53132 | 139.80434 | 13 ft | 16 kts | 150° |
| 2026-02-21 07:25 | 35.53033 | 139.80505 | 13 ft | 13 kts | 150° |
| 2026-02-21 07:25 | 35.52972 | 139.80527 | 13 ft | 8 kts | 199° |
| 2026-02-21 07:25 | 35.52913 | 139.80476 | 13 ft | 12 kts | 223° |
| 2026-02-21 07:26 | 35.52844 | 139.80397 | 13 ft | 15 kts | 221° |
| 2026-02-21 07:26 | 35.52762 | 139.80307 | 13 ft | 11 kts | 222° |
| 2026-02-21 07:26 | 35.52694 | 139.80231 | 13 ft | 14 kts | 223° |
| 2026-02-21 07:26 | 35.52623 | 139.80153 | 13 ft | 10 kts | 214° |
| 2026-02-21 07:27 | 35.52551 | 139.80173 | 13 ft | 11 kts | 134° |
| 2026-02-21 07:27 | 35.52507 | 139.80231 | 13 ft | 10 kts | 133° |
| 2026-02-21 07:27 | 35.52459 | 139.80295 | 13 ft | 9 kts | 133° |
| 2026-02-21 07:27 | 35.52428 | 139.80341 | 13 ft | 6 kts | 114° |
| 2026-02-21 07:28 | 35.52438 | 139.80391 | 13 ft | 6 kts | 50° |
| 2026-02-21 07:28 | 35.52481 | 139.80441 | 13 ft | 18 kts | 43° |
| 2026-02-21 07:28 | 35.52725 | 139.80716 | 13 ft | 86 kts | 42° |
| 2026-02-21 07:28 | 35.53375 | 139.81442 | 28 ft | 159 kts | 42° |
| 2026-02-21 07:29 | 35.54192 | 139.82356 | 721 ft | 164 kts | 44° |
| 2026-02-21 07:29 | 35.54750 | 139.83495 | 1422 ft | 170 kts | 79° |
| 2026-02-21 07:29 | 35.54702 | 139.84982 | 2068 ft | 186 kts | 101° |
| 2026-02-21 07:29 | 35.54346 | 139.86591 | 2588 ft | 212 kts | 108° |
| 2026-02-21 07:30 | 35.53807 | 139.88380 | 3275 ft | 240 kts | 111° |
| 2026-02-21 07:30 | 35.53156 | 139.90302 | 4294 ft | 258 kts | 112° |
| 2026-02-21 07:30 | 35.52420 | 139.92262 | 5429 ft | 268 kts | 121° |
| 2026-02-21 07:30 | 35.51216 | 139.93810 | 6653 ft | 273 kts | 147° |
| 2026-02-21 07:31 | 35.49720 | 139.94566 | 7751 ft | 278 kts | 169° |
| 2026-02-21 07:31 | 35.46318 | 139.93921 | 9946 ft | 291 kts | 202° |
| 2026-02-21 07:31 | 35.44423 | 139.92801 | 10825 ft | 314 kts | 209° |
| 2026-02-21 07:32 | 35.42423 | 139.91425 | 11487 ft | 343 kts | 212° |
| 2026-02-21 07:32 | 35.41742 | 139.90936 | 11682 ft | 353 kts | 212° |
| 2026-02-21 07:32 | 35.41018 | 139.90410 | 11872 ft | 362 kts | 214° |
| 2026-02-21 07:33 | 35.34246 | 139.79507 | 16573 ft | 397 kts | 239° |
| 2026-02-21 07:33 | 35.32721 | 139.76750 | 17679 ft | 404 kts | 239° |
| 2026-02-21 07:33 | 35.31187 | 139.74023 | 18733 ft | 411 kts | 239° |
| 2026-02-21 07:34 | 35.29540 | 139.71124 | 19698 ft | 413 kts | 239° |
| 2026-02-21 07:34 | 35.27918 | 139.68272 | 19982 ft | 415 kts | 239° |
| 2026-02-21 07:34 | 35.26282 | 139.65389 | 19998 ft | 417 kts | 239° |
| 2026-02-21 07:34 | 35.24635 | 139.62479 | 20017 ft | 418 kts | 240° |
| 2026-02-21 07:35 | 35.23003 | 139.59590 | 20031 ft | 418 kts | 240° |
| 2026-02-21 07:35 | 35.21358 | 139.56674 | 20043 ft | 418 kts | 240° |
| 2026-02-21 07:35 | 35.19706 | 139.53743 | 20051 ft | 418 kts | 240° |
| 2026-02-21 07:35 | 35.18063 | 139.50819 | 20058 ft | 418 kts | 240° |
| 2026-02-21 07:36 | 35.16413 | 139.47887 | 20469 ft | 424 kts | 240° |
| 2026-02-21 07:36 | 35.14819 | 139.45059 | 21628 ft | 426 kts | 240° |
| 2026-02-21 07:36 | 35.13136 | 139.42058 | 22629 ft | 432 kts | 241° |
| 2026-02-21 07:36 | 35.11443 | 139.39037 | 23620 ft | 438 kts | 241° |
| 2026-02-21 07:37 | 35.09737 | 139.36011 | 24768 ft | 438 kts | 241° |
| 2026-02-21 07:37 | 35.08116 | 139.33128 | 25950 ft | 436 kts | 240° |
| 2026-02-21 07:37 | 35.06442 | 139.30130 | 27032 ft | 432 kts | 241° |
| 2026-02-21 07:37 | 35.04804 | 139.27119 | 27659 ft | 424 kts | 244° |
| 2026-02-21 07:38 | 35.03475 | 139.24016 | 27804 ft | 413 kts | 252° |
| 2026-02-21 07:38 | 35.02549 | 139.20816 | 27949 ft | 405 kts | 259° |
| 2026-02-21 07:38 | 35.01922 | 139.17473 | 27942 ft | 401 kts | 263° |
| 2026-02-21 07:38 | 35.01413 | 139.14151 | 27925 ft | 400 kts | 264° |
| 2026-02-21 07:39 | 35.00893 | 139.10837 | 27927 ft | 401 kts | 263° |
| 2026-02-21 07:39 | 35.00349 | 139.07553 | 27953 ft | 402 kts | 263° |
| 2026-02-21 07:39 | 34.99784 | 139.04201 | 27992 ft | 402 kts | 263° |
| 2026-02-21 07:40 | 34.98850 | 138.97527 | 28041 ft | 398 kts | 267° |